createdAt,value
2022-08-17T00:02:26.216Z,25.67
2022-08-17T00:04:55.425Z,25.66
2022-08-17T00:07:22.668Z,25.58
2022-08-17T00:09:49.423Z,25.49
2022-08-17T00:12:41.309Z,25.56
2022-08-17T00:15:04.877Z,25.53
2022-08-17T00:17:31.695Z,25.56
2022-08-17T00:20:00.193Z,25.51
2022-08-17T00:22:31.732Z,25.50
2022-08-17T00:25:07.234Z,25.44
2022-08-17T00:27:34.510Z,25.56
2022-08-17T00:30:01.494Z,25.49
2022-08-17T00:33:14.246Z,25.45
2022-08-17T00:35:25.064Z,25.44
2022-08-17T00:37:52.051Z,25.44
2022-08-17T00:40:19.609Z,25.43
2022-08-17T00:42:47.335Z,25.31
2022-08-17T00:45:17.273Z,25.30
2022-08-17T00:47:44.182Z,25.30
2022-08-17T00:50:14.824Z,25.39
2022-08-17T00:52:54.247Z,25.37
2022-08-17T00:55:22.501Z,25.32
2022-08-17T00:57:55.411Z,25.40
2022-08-17T01:00:43.887Z,25.23
2022-08-17T01:03:17.728Z,25.06
2022-08-17T01:05:44.498Z,25.04
2022-08-17T01:08:15.510Z,25.09
2022-08-17T01:10:57.161Z,25.16
2022-08-17T01:13:39.780Z,25.19
2022-08-17T01:16:15.875Z,25.20
2022-08-17T01:18:45.691Z,25.29
2022-08-17T01:21:22.315Z,25.28
2022-08-17T01:23:49.225Z,25.31
2022-08-17T01:26:16.507Z,25.24
2022-08-17T01:28:54.667Z,25.19
2022-08-17T01:31:25.492Z,25.24
2022-08-17T01:33:52.335Z,25.30
2022-08-17T01:36:19.212Z,25.21
2022-08-17T01:38:45.981Z,25.16
2022-08-17T01:41:16.299Z,25.02
2022-08-17T01:43:51.230Z,24.78
2022-08-17T01:46:26.908Z,24.90
2022-08-17T01:48:56.210Z,24.94
2022-08-17T01:51:26.432Z,24.94
2022-08-17T01:53:58.168Z,24.95
2022-08-17T01:56:28.534Z,24.81
2022-08-17T01:58:56.202Z,24.91
2022-08-17T02:01:28.622Z,24.91
2022-08-17T02:04:00.544Z,24.92
2022-08-17T02:06:31.410Z,24.87
2022-08-17T02:09:08.928Z,24.98
2022-08-17T02:11:43.378Z,24.99
2022-08-17T02:14:11.412Z,24.98
2022-08-17T02:16:40.233Z,24.88
2022-08-17T02:19:09.990Z,24.81
2022-08-17T02:21:37.886Z,24.73
2022-08-17T02:24:08.355Z,24.74
2022-08-17T02:26:36.453Z,24.84
2022-08-17T02:29:04.107Z,24.93
2022-08-17T02:31:31.390Z,24.96
2022-08-17T02:34:03.644Z,24.94
2022-08-17T02:36:33.817Z,24.93
2022-08-17T02:39:10.178Z,24.86
2022-08-17T02:41:37.636Z,24.77
2022-08-17T02:44:05.976Z,24.79
2022-08-17T02:46:33.077Z,24.86
2022-08-17T02:48:59.824Z,24.75
2022-08-17T02:51:27.313Z,24.75
2022-08-17T02:54:39.097Z,24.73
2022-08-17T02:56:41.087Z,24.64
2022-08-17T02:59:07.819Z,24.65
2022-08-17T03:01:34.654Z,24.55
2022-08-17T03:04:01.442Z,24.55
2022-08-17T03:06:29.190Z,24.40
2022-08-17T03:08:55.841Z,24.36
2022-08-17T03:11:23.251Z,24.45
2022-08-17T03:13:50.429Z,24.50
2022-08-17T03:16:17.058Z,24.62
2022-08-17T03:18:43.737Z,24.70
2022-08-17T03:21:10.572Z,24.65
2022-08-17T03:23:42.102Z,24.62
2022-08-17T03:26:12.365Z,24.52
2022-08-17T03:28:42.915Z,24.53
2022-08-17T03:31:09.652Z,24.39
2022-08-17T03:33:36.320Z,24.56
2022-08-17T03:36:03.479Z,24.52
2022-08-17T03:38:30.364Z,24.29
2022-08-17T03:41:06.950Z,24.33
2022-08-17T03:43:34.572Z,24.20
2022-08-17T03:46:33.829Z,24.15
2022-08-17T03:49:22.785Z,24.13
2022-08-17T03:52:08.367Z,24.03
2022-08-17T03:54:53.721Z,24.10
2022-08-17T03:57:20.419Z,23.90
2022-08-17T03:59:47.905Z,23.99
2022-08-17T04:02:21.639Z,23.87
2022-08-17T04:04:52.123Z,23.80
2022-08-17T04:07:20.921Z,23.73
2022-08-17T04:09:48.142Z,23.53
2022-08-17T04:12:21.381Z,23.97
2022-08-17T04:14:53.426Z,24.26
2022-08-17T04:17:24.446Z,24.33
2022-08-17T04:19:51.662Z,24.11
2022-08-17T04:22:30.189Z,23.88
2022-08-17T04:24:59.391Z,23.49
2022-08-17T04:27:26.062Z,23.44
2022-08-17T04:29:54.979Z,23.58
2022-08-17T04:33:03.604Z,23.38
2022-08-17T04:35:10.146Z,23.29
2022-08-17T04:37:36.816Z,23.47
2022-08-17T04:40:30.972Z,23.12
2022-08-17T04:43:07.529Z,23.26
2022-08-17T04:45:38.658Z,23.47
2022-08-17T04:48:05.373Z,23.22
2022-08-17T04:50:34.781Z,23.32
2022-08-17T04:53:01.951Z,23.28
2022-08-17T04:55:28.911Z,23.50
2022-08-17T04:57:55.726Z,23.69
2022-08-17T05:00:25.615Z,23.76
2022-08-17T05:02:54.185Z,23.45
2022-08-17T05:05:24.213Z,23.42
2022-08-17T05:07:54.352Z,23.53
2022-08-17T05:10:23.026Z,23.39
2022-08-17T05:12:59.680Z,23.41
2022-08-17T05:15:27.747Z,23.53
2022-08-17T05:17:54.911Z,23.91
2022-08-17T05:20:23.173Z,23.73
2022-08-17T05:23:00.130Z,23.67
2022-08-17T05:25:29.866Z,23.69
2022-08-17T05:28:00.141Z,24.04
2022-08-17T05:30:29.164Z,23.74
2022-08-17T05:32:59.637Z,23.58
2022-08-17T05:35:28.224Z,23.59
2022-08-17T05:37:55.076Z,23.84
2022-08-17T05:40:26.140Z,23.75
2022-08-17T05:43:13.036Z,23.64
2022-08-17T05:45:55.191Z,23.62
2022-08-17T05:48:39.413Z,23.62
2022-08-17T05:51:28.510Z,23.81
2022-08-17T05:54:31.160Z,24.12
2022-08-17T05:57:25.279Z,24.25
2022-08-17T06:00:12.821Z,23.93
2022-08-17T06:03:06.565Z,24.02
2022-08-17T06:05:36.512Z,23.82
2022-08-17T06:08:19.742Z,23.83
2022-08-17T06:11:17.080Z,23.95
2022-08-17T06:13:58.756Z,23.85
2022-08-17T06:16:34.462Z,23.47
2022-08-17T06:19:40.716Z,23.49
2022-08-17T06:22:10.690Z,23.56
2022-08-17T06:25:01.001Z,23.43
2022-08-17T06:27:48.800Z,23.30
2022-08-17T06:30:27.114Z,23.39
2022-08-17T06:32:59.416Z,23.27
2022-08-17T06:35:33.393Z,23.21
2022-08-17T06:38:37.131Z,23.08
2022-08-17T06:41:18.358Z,23.10
2022-08-17T06:44:43.420Z,23.39
2022-08-17T06:47:09.142Z,23.34
2022-08-17T06:49:55.660Z,23.30
2022-08-17T06:52:45.387Z,23.45
2022-08-17T06:55:26.328Z,23.62
2022-08-17T06:57:58.859Z,23.71
2022-08-17T07:00:36.698Z,23.39
2022-08-17T07:03:31.777Z,23.20
2022-08-17T07:06:03.292Z,23.31
2022-08-17T07:09:01.675Z,23.40
2022-08-17T07:11:39.693Z,23.57
2022-08-17T07:14:18.580Z,23.76
2022-08-17T07:16:56.542Z,23.58
2022-08-17T07:19:31.576Z,23.58
2022-08-17T07:22:30.601Z,23.50
2022-08-17T07:25:18.693Z,23.31
2022-08-17T07:27:51.682Z,23.37
2022-08-17T07:30:21.460Z,23.52
2022-08-17T07:32:57.768Z,23.73
2022-08-17T07:35:40.710Z,23.68
2022-08-17T07:38:24.637Z,23.52
2022-08-17T07:41:03.563Z,23.91
2022-08-17T07:43:34.312Z,23.97
2022-08-17T07:46:37.224Z,23.59
2022-08-17T07:49:04.619Z,23.42
2022-08-17T07:51:42.046Z,23.38
2022-08-17T07:54:35.712Z,23.42
2022-08-17T07:57:08.498Z,23.71
2022-08-17T07:59:44.265Z,23.48
2022-08-17T08:02:15.666Z,23.43
2022-08-17T08:05:06.793Z,23.64
2022-08-17T08:07:42.327Z,23.57
2022-08-17T08:10:15.114Z,23.73
2022-08-17T08:12:48.909Z,23.78
2022-08-17T08:15:23.905Z,23.95
2022-08-17T08:17:55.498Z,23.85
2022-08-17T08:20:52.594Z,23.54
2022-08-17T08:23:36.824Z,23.73
2022-08-17T08:26:27.497Z,23.64
2022-08-17T08:29:04.285Z,23.59
2022-08-17T08:32:07.595Z,23.63
2022-08-17T08:34:54.748Z,23.82
2022-08-17T08:37:48.059Z,23.63
2022-08-17T08:40:36.265Z,23.61
2022-08-17T08:43:22.259Z,23.68
2022-08-17T08:46:19.743Z,23.77
2022-08-17T08:49:11.822Z,23.76
2022-08-17T08:51:52.597Z,23.59
2022-08-17T08:54:38.459Z,23.68
2022-08-17T08:57:29.404Z,23.56
2022-08-17T09:00:19.021Z,23.97
2022-08-17T09:03:10.659Z,24.14
2022-08-17T09:06:04.406Z,24.18
2022-08-17T09:08:50.264Z,24.13
2022-08-17T09:11:35.546Z,24.07
2022-08-17T09:14:31.250Z,24.02
2022-08-17T09:17:18.448Z,24.07
2022-08-17T09:19:54.469Z,24.18
2022-08-17T09:22:39.181Z,24.18
2022-08-17T09:25:18.022Z,24.32
2022-08-17T09:28:00.507Z,24.46
2022-08-17T09:30:36.230Z,24.68
2022-08-17T09:33:09.977Z,24.88
2022-08-17T09:35:44.286Z,24.72
2022-08-17T09:38:35.137Z,24.67
2022-08-17T09:41:15.761Z,24.52
2022-08-17T09:44:23.446Z,24.44
2022-08-17T09:46:59.964Z,24.41
2022-08-17T09:49:35.641Z,24.50
2022-08-17T09:52:22.721Z,24.52
2022-08-17T09:54:52.371Z,24.58
2022-08-17T09:57:37.955Z,24.56
2022-08-17T10:00:10.126Z,24.50
2022-08-17T10:03:02.694Z,24.45
2022-08-17T10:06:00.366Z,24.28
2022-08-17T10:08:58.367Z,24.28
2022-08-17T10:12:00.882Z,24.27
2022-08-17T10:14:43.876Z,24.10
2022-08-17T10:17:20.739Z,24.18
2022-08-17T10:20:11.491Z,23.99
2022-08-17T10:23:12.027Z,23.89
2022-08-17T10:26:06.597Z,23.95
2022-08-17T10:28:43.470Z,24.21
2022-08-17T10:31:34.321Z,24.11
2022-08-17T10:34:38.641Z,24.18
2022-08-17T10:37:28.249Z,24.16
2022-08-17T10:40:34.705Z,24.14
2022-08-17T10:43:19.058Z,24.01
2022-08-17T10:46:27.770Z,24.25
2022-08-17T10:48:40.830Z,24.19
2022-08-17T10:51:10.198Z,24.28
2022-08-17T10:53:40.577Z,24.22
2022-08-17T10:56:13.539Z,24.19
2022-08-17T10:58:49.833Z,24.18
2022-08-17T11:01:17.933Z,24.46
2022-08-17T11:03:56.618Z,24.54
2022-08-17T11:06:23.248Z,24.74
2022-08-17T11:09:28.989Z,24.96
2022-08-17T11:11:55.759Z,25.05
2022-08-17T11:14:52.162Z,25.03
2022-08-17T11:18:03.941Z,25.31
2022-08-17T11:21:04.452Z,25.35
2022-08-17T11:24:18.304Z,25.60
2022-08-17T11:27:05.154Z,25.76
2022-08-17T11:29:59.544Z,25.86
2022-08-17T11:32:47.755Z,25.94
2022-08-17T11:35:15.487Z,25.96
2022-08-17T11:37:49.222Z,26.18
2022-08-17T11:40:34.695Z,26.14
2022-08-17T11:43:29.745Z,26.24
2022-08-17T11:46:14.868Z,26.32
2022-08-17T11:49:26.461Z,26.09
2022-08-17T11:52:00.125Z,26.20
2022-08-17T11:54:33.807Z,26.20
2022-08-17T11:57:27.604Z,25.91
2022-08-17T11:59:55.628Z,25.94
2022-08-17T12:02:31.689Z,26.16
2022-08-17T12:05:12.369Z,26.27
2022-08-17T12:07:51.899Z,26.21
2022-08-17T12:10:23.364Z,25.82
2022-08-17T12:12:53.720Z,25.82
2022-08-17T12:15:29.211Z,25.83
2022-08-17T12:17:57.343Z,25.71
2022-08-17T12:20:28.069Z,25.77
2022-08-17T12:23:12.160Z,25.78
2022-08-17T12:25:49.426Z,25.78
2022-08-17T12:28:30.387Z,25.81
2022-08-17T12:31:11.778Z,25.80
2022-08-17T12:33:44.229Z,25.88
2022-08-17T12:36:15.902Z,26.01
2022-08-17T12:39:13.054Z,25.92
2022-08-17T12:41:46.897Z,25.95
2022-08-17T12:44:18.526Z,25.91
2022-08-17T12:47:21.943Z,25.90
2022-08-17T12:49:52.703Z,25.98
2022-08-17T12:52:19.353Z,26.03
2022-08-17T12:55:06.935Z,25.80
2022-08-17T12:57:43.378Z,25.69
2022-08-17T13:00:37.985Z,25.86
2022-08-17T13:03:09.437Z,26.00
2022-08-17T13:05:55.764Z,26.20
2022-08-17T13:08:33.524Z,26.22
2022-08-17T13:11:03.872Z,26.36
2022-08-17T13:13:36.625Z,26.37
2022-08-17T13:16:09.419Z,26.67
2022-08-17T13:18:43.861Z,26.67
2022-08-17T13:21:27.470Z,26.73
2022-08-17T13:24:13.694Z,27.06
2022-08-17T13:26:42.983Z,27.04
2022-08-17T13:29:53.874Z,26.99
2022-08-17T13:32:33.497Z,27.00
2022-08-17T13:35:16.257Z,26.90
2022-08-17T13:37:59.505Z,27.14
2022-08-17T13:40:31.411Z,27.05
2022-08-17T13:42:58.864Z,27.16
2022-08-17T13:45:34.848Z,27.48
2022-08-17T13:48:13.840Z,27.44
2022-08-17T13:50:48.799Z,27.44
2022-08-17T13:53:29.539Z,27.51
2022-08-17T13:56:03.491Z,27.46
2022-08-17T13:58:37.176Z,27.58
2022-08-17T14:01:27.992Z,27.78
2022-08-17T14:03:56.140Z,27.83
2022-08-17T14:06:52.000Z,27.83
2022-08-17T14:09:11.568Z,27.60
2022-08-17T14:11:38.384Z,27.78
2022-08-17T14:14:05.208Z,27.65
2022-08-17T14:16:32.097Z,27.84
2022-08-17T14:18:58.805Z,28.04
2022-08-17T14:21:26.686Z,28.23
2022-08-17T14:23:54.667Z,28.61
2022-08-17T14:26:21.928Z,28.74
2022-08-17T14:28:56.708Z,28.78
2022-08-17T14:31:24.027Z,28.90
2022-08-17T14:33:51.927Z,29.30
2022-08-17T14:36:18.570Z,29.42
2022-08-17T14:38:45.335Z,29.38
2022-08-17T14:41:12.043Z,29.53
2022-08-17T14:43:39.829Z,29.60
2022-08-17T14:46:06.977Z,29.65
2022-08-17T14:48:35.785Z,29.27
2022-08-17T14:51:04.774Z,29.37
2022-08-17T14:53:31.608Z,30.47
2022-08-17T14:55:58.459Z,31.54
2022-08-17T14:58:25.955Z,32.58
2022-08-17T15:00:52.689Z,33.88
2022-08-17T15:03:19.507Z,34.87
2022-08-17T15:05:46.750Z,34.95
2022-08-17T15:08:13.801Z,35.28
2022-08-17T15:10:40.511Z,35.06
2022-08-17T15:13:19.636Z,34.19
2022-08-17T15:15:46.921Z,34.22
2022-08-17T15:18:14.170Z,33.17
2022-08-17T15:20:42.201Z,32.94
2022-08-17T15:23:13.050Z,32.58
2022-08-17T15:25:39.894Z,32.46
2022-08-17T15:28:07.327Z,33.00
2022-08-17T15:30:34.934Z,32.24
2022-08-17T15:33:02.990Z,31.16
2022-08-17T15:35:32.912Z,30.53
2022-08-17T15:38:07.995Z,30.01
2022-08-17T15:40:39.964Z,30.23
2022-08-17T15:43:11.159Z,29.78
2022-08-17T15:45:38.495Z,29.41
2022-08-17T15:48:05.268Z,29.07
2022-08-17T15:50:32.089Z,29.30
2022-08-17T15:53:00.774Z,29.31
2022-08-17T15:55:30.588Z,29.06
2022-08-17T15:57:57.730Z,28.72
2022-08-17T16:00:25.787Z,28.75
2022-08-17T16:03:44.680Z,28.71
2022-08-17T16:05:40.776Z,28.41
2022-08-17T16:08:08.057Z,28.50
2022-08-17T16:10:36.048Z,28.73
2022-08-17T16:13:04.365Z,28.53
2022-08-17T16:15:31.981Z,28.83
2022-08-17T16:17:58.981Z,28.88
2022-08-17T16:20:26.030Z,28.59
2022-08-17T16:22:54.237Z,28.34
2022-08-17T16:25:47.127Z,28.36
2022-08-17T16:28:12.417Z,28.41
2022-08-17T16:30:39.629Z,28.81
2022-08-17T16:33:07.490Z,28.41
2022-08-17T16:35:34.158Z,28.60
2022-08-17T16:38:00.970Z,28.54
2022-08-17T16:40:29.617Z,28.84
2022-08-17T16:42:58.075Z,28.46
2022-08-17T16:45:27.756Z,28.67
2022-08-17T16:47:59.015Z,28.56
2022-08-17T16:50:25.993Z,28.43
2022-08-17T16:52:52.987Z,28.65
2022-08-17T16:55:21.768Z,28.31
2022-08-17T16:57:50.269Z,28.28
2022-08-17T17:00:19.454Z,28.03
2022-08-17T17:02:48.574Z,28.00
2022-08-17T17:05:47.856Z,27.94
2022-08-17T17:08:59.289Z,28.19
2022-08-17T17:11:41.338Z,28.06
2022-08-17T17:14:15.943Z,27.98
2022-08-17T17:16:45.728Z,27.90
2022-08-17T17:19:35.360Z,27.86
2022-08-17T17:22:11.580Z,27.90
2022-08-17T17:24:56.758Z,28.03
2022-08-17T17:28:00.619Z,28.26
2022-08-17T17:30:33.243Z,28.37
2022-08-17T17:33:06.862Z,28.00
2022-08-17T17:35:43.455Z,28.29
2022-08-17T17:38:29.241Z,28.04
2022-08-17T17:41:03.039Z,27.95
2022-08-17T17:43:40.407Z,27.80
2022-08-17T17:46:27.463Z,27.68
2022-08-17T17:48:57.386Z,27.75
2022-08-17T17:52:06.484Z,27.75
2022-08-17T17:55:06.164Z,28.00
2022-08-17T17:57:54.485Z,28.04
2022-08-17T18:00:58.956Z,27.84
2022-08-17T18:03:30.897Z,27.77
2022-08-17T18:06:12.642Z,27.65
2022-08-17T18:09:02.784Z,27.59
2022-08-17T18:11:41.760Z,27.49
2022-08-17T18:14:29.830Z,27.47
2022-08-17T18:16:58.777Z,27.45
2022-08-17T18:19:28.102Z,27.42
2022-08-17T18:22:02.176Z,27.42
2022-08-17T18:24:41.970Z,27.58
2022-08-17T18:27:38.320Z,27.53
2022-08-17T18:30:14.077Z,27.60
2022-08-17T18:32:43.521Z,27.83
2022-08-17T18:35:10.247Z,27.73
2022-08-17T18:37:48.841Z,27.65
2022-08-17T18:40:19.354Z,27.48
2022-08-17T18:43:08.958Z,27.41
2022-08-17T18:45:46.558Z,27.44
2022-08-17T18:48:22.612Z,27.62
2022-08-17T18:50:51.371Z,27.59
2022-08-17T18:53:20.049Z,27.37
2022-08-17T18:56:07.599Z,27.30
2022-08-17T18:58:34.530Z,27.22
2022-08-17T19:01:01.204Z,27.23
2022-08-17T19:03:28.457Z,27.22
2022-08-17T19:06:14.717Z,27.22
2022-08-17T19:08:44.868Z,27.21
2022-08-17T19:11:33.967Z,27.21
2022-08-17T19:14:05.461Z,27.25
2022-08-17T19:16:55.610Z,27.17
2022-08-17T19:19:35.607Z,27.39
2022-08-17T19:22:30.920Z,27.31
2022-08-17T19:25:09.542Z,27.21
2022-08-17T19:27:57.504Z,27.20
2022-08-17T19:30:25.409Z,27.15
2022-08-17T19:32:53.022Z,27.11
2022-08-17T19:35:22.105Z,27.32
2022-08-17T19:38:13.296Z,27.13
2022-08-17T19:41:18.612Z,27.25
2022-08-17T19:44:07.033Z,27.08
2022-08-17T19:46:56.339Z,27.05
2022-08-17T19:49:49.475Z,27.02
2022-08-17T19:52:34.246Z,27.00
2022-08-17T19:55:25.255Z,26.96
2022-08-17T19:58:20.302Z,26.93
2022-08-17T20:00:51.158Z,26.93
2022-08-17T20:03:35.472Z,26.96
2022-08-17T20:06:12.920Z,26.94
2022-08-17T20:09:08.630Z,26.95
2022-08-17T20:11:55.491Z,26.96
2022-08-17T20:14:30.895Z,26.92
2022-08-17T20:17:02.454Z,26.87
2022-08-17T20:19:42.889Z,26.83
2022-08-17T20:22:22.736Z,26.79
2022-08-17T20:25:01.885Z,26.82
2022-08-17T20:27:34.440Z,26.91
2022-08-17T20:30:12.252Z,26.91
2022-08-17T20:32:53.038Z,26.85
2022-08-17T20:35:22.328Z,27.11
2022-08-17T20:37:56.564Z,27.04
2022-08-17T20:40:27.451Z,27.00
2022-08-17T20:42:54.880Z,26.89
2022-08-17T20:45:21.474Z,26.79
2022-08-17T20:48:16.017Z,26.71
2022-08-17T20:50:44.013Z,26.79
2022-08-17T20:53:15.136Z,26.68
2022-08-17T20:55:51.894Z,26.67
2022-08-17T20:58:23.274Z,26.63
2022-08-17T21:00:56.144Z,26.61
2022-08-17T21:03:23.538Z,26.60
2022-08-17T21:06:17.252Z,26.63
2022-08-17T21:08:54.470Z,26.63
2022-08-17T21:12:03.350Z,26.64
2022-08-17T21:14:32.735Z,26.60
2022-08-17T21:17:17.440Z,26.62
2022-08-17T21:20:14.749Z,26.54
2022-08-17T21:23:03.403Z,26.55
2022-08-17T21:25:54.952Z,26.55
2022-08-17T21:28:34.278Z,26.50
2022-08-17T21:31:08.445Z,26.45
2022-08-17T21:33:39.516Z,26.39
2022-08-17T21:36:11.867Z,26.22
2022-08-17T21:38:47.327Z,26.44
2022-08-17T21:41:23.279Z,26.40
2022-08-17T21:43:52.580Z,26.48
2022-08-17T21:46:27.050Z,26.26
2022-08-17T21:48:55.408Z,26.15
2022-08-17T21:51:26.237Z,26.07
2022-08-17T21:54:23.004Z,26.14
2022-08-17T21:56:50.028Z,26.19
2022-08-17T21:59:19.681Z,26.16
2022-08-17T22:02:01.356Z,26.12
2022-08-17T22:04:34.671Z,26.18
2022-08-17T22:07:11.730Z,26.19
2022-08-17T22:09:43.205Z,26.13
2022-08-17T22:12:15.053Z,26.10
2022-08-17T22:14:52.798Z,25.94
2022-08-17T22:17:29.628Z,25.90
2022-08-17T22:20:01.482Z,25.77
2022-08-17T22:22:30.234Z,25.76
2022-08-17T22:25:06.766Z,25.44
2022-08-17T22:28:03.671Z,25.86
2022-08-17T22:30:42.178Z,25.67
2022-08-17T22:33:28.845Z,25.49
2022-08-17T22:36:29.273Z,25.75
2022-08-17T22:39:08.494Z,25.70
2022-08-17T22:41:51.892Z,25.71
2022-08-17T22:44:37.438Z,25.35
2022-08-17T22:47:26.656Z,25.48
2022-08-17T22:50:02.501Z,25.30
2022-08-17T22:53:01.693Z,25.34
2022-08-17T22:55:50.177Z,25.31
2022-08-17T22:58:39.570Z,25.25
2022-08-17T23:01:31.502Z,25.11
2022-08-17T23:04:05.801Z,25.67
2022-08-17T23:06:34.842Z,25.73
2022-08-17T23:09:04.290Z,25.66
2022-08-17T23:11:50.365Z,25.57
2022-08-17T23:14:19.668Z,25.46
2022-08-17T23:16:48.643Z,25.32
2022-08-17T23:19:18.704Z,25.23
2022-08-17T23:21:46.208Z,25.31
2022-08-17T23:24:24.061Z,25.19
2022-08-17T23:26:51.343Z,25.17
2022-08-17T23:29:20.474Z,25.21
2022-08-17T23:31:49.173Z,25.12
2022-08-17T23:34:18.328Z,25.17
2022-08-17T23:36:53.044Z,25.25
2022-08-17T23:39:24.693Z,24.94
2022-08-17T23:41:57.332Z,25.09
2022-08-17T23:44:24.209Z,25.06
2022-08-17T23:46:51.805Z,25.05
2022-08-17T23:49:19.393Z,25.00
2022-08-17T23:51:48.663Z,25.04
2022-08-17T23:54:24.801Z,24.98
2022-08-17T23:56:51.567Z,24.79
2022-08-17T23:59:20.794Z,24.93
